sensor_id;sensor_type;location;lat;lon;timestamp;temperature;humidity
44111;DHT22;29774;52.664;5.074;2023-03-23T00:01:30;11.50;88.70
44111;DHT22;29774;52.664;5.074;2023-03-23T00:03:57;11.50;88.70
44111;DHT22;29774;52.664;5.074;2023-03-23T00:06:25;11.50;88.80
44111;DHT22;29774;52.664;5.074;2023-03-23T00:08:52;11.50;88.80
44111;DHT22;29774;52.664;5.074;2023-03-23T00:11:24;11.50;88.90
44111;DHT22;29774;52.664;5.074;2023-03-23T00:13:52;11.40;88.90
44111;DHT22;29774;52.664;5.074;2023-03-23T00:16:22;11.50;88.80
44111;DHT22;29774;52.664;5.074;2023-03-23T00:18:58;11.50;88.80
44111;DHT22;29774;52.664;5.074;2023-03-23T00:21:30;11.40;88.80
44111;DHT22;29774;52.664;5.074;2023-03-23T00:24:09;11.40;88.70
44111;DHT22;29774;52.664;5.074;2023-03-23T00:26:37;11.50;88.50
44111;DHT22;29774;52.664;5.074;2023-03-23T00:29:07;11.50;88.20
44111;DHT22;29774;52.664;5.074;2023-03-23T00:31:33;11.60;87.90
44111;DHT22;29774;52.664;5.074;2023-03-23T00:34:02;11.50;88.10
44111;DHT22;29774;52.664;5.074;2023-03-23T00:36:34;11.50;88.00
44111;DHT22;29774;52.664;5.074;2023-03-23T00:39:03;11.60;87.50
44111;DHT22;29774;52.664;5.074;2023-03-23T00:41:29;11.50;87.60
44111;DHT22;29774;52.664;5.074;2023-03-23T00:43:57;11.60;87.30
44111;DHT22;29774;52.664;5.074;2023-03-23T00:46:24;11.60;87.50
44111;DHT22;29774;52.664;5.074;2023-03-23T00:48:50;11.60;87.30
44111;DHT22;29774;52.664;5.074;2023-03-23T00:51:17;11.60;87.10
44111;DHT22;29774;52.664;5.074;2023-03-23T00:53:43;11.70;87.00
44111;DHT22;29774;52.664;5.074;2023-03-23T00:56:09;11.60;87.30
44111;DHT22;29774;52.664;5.074;2023-03-23T00:58:35;11.60;87.30
44111;DHT22;29774;52.664;5.074;2023-03-23T01:01:01;11.60;87.10
44111;DHT22;29774;52.664;5.074;2023-03-23T01:03:27;11.60;87.20
44111;DHT22;29774;52.664;5.074;2023-03-23T01:05:54;11.60;87.00
44111;DHT22;29774;52.664;5.074;2023-03-23T01:08:20;11.70;87.00
44111;DHT22;29774;52.664;5.074;2023-03-23T01:10:47;11.70;86.90
44111;DHT22;29774;52.664;5.074;2023-03-23T01:13:13;11.70;86.90
44111;DHT22;29774;52.664;5.074;2023-03-23T01:15:39;11.60;87.00
44111;DHT22;29774;52.664;5.074;2023-03-23T01:18:05;11.60;87.00
44111;DHT22;29774;52.664;5.074;2023-03-23T01:20:32;11.60;86.90
44111;DHT22;29774;52.664;5.074;2023-03-23T01:22:58;11.70;86.50
44111;DHT22;29774;52.664;5.074;2023-03-23T01:25:30;11.70;86.30
44111;DHT22;29774;52.664;5.074;2023-03-23T01:27:58;11.70;85.90
44111;DHT22;29774;52.664;5.074;2023-03-23T01:30:24;11.70;85.60
44111;DHT22;29774;52.664;5.074;2023-03-23T01:32:50;11.80;85.40
44111;DHT22;29774;52.664;5.074;2023-03-23T01:35:16;11.80;85.70
44111;DHT22;29774;52.664;5.074;2023-03-23T01:37:42;11.70;85.70
44111;DHT22;29774;52.664;5.074;2023-03-23T01:40:09;11.80;85.50
44111;DHT22;29774;52.664;5.074;2023-03-23T01:42:37;11.80;85.30
44111;DHT22;29774;52.664;5.074;2023-03-23T01:47:55;11.70;85.50
44111;DHT22;29774;52.664;5.074;2023-03-23T01:50:22;11.70;85.40
44111;DHT22;29774;52.664;5.074;2023-03-23T01:52:50;11.80;85.10
44111;DHT22;29774;52.664;5.074;2023-03-23T01:55:18;11.80;85.30
44111;DHT22;29774;52.664;5.074;2023-03-23T01:57:45;11.70;85.30
44111;DHT22;29774;52.664;5.074;2023-03-23T02:00:12;11.80;85.10
44111;DHT22;29774;52.664;5.074;2023-03-23T02:02:46;11.80;85.10
44111;DHT22;29774;52.664;5.074;2023-03-23T02:05:21;11.80;85.10
44111;DHT22;29774;52.664;5.074;2023-03-23T02:07:49;11.80;85.20
44111;DHT22;29774;52.664;5.074;2023-03-23T02:10:15;11.80;84.80
44111;DHT22;29774;52.664;5.074;2023-03-23T02:12:41;11.90;84.30
44111;DHT22;29774;52.664;5.074;2023-03-23T02:15:07;12.00;84.30
44111;DHT22;29774;52.664;5.074;2023-03-23T02:17:45;11.90;84.30
44111;DHT22;29774;52.664;5.074;2023-03-23T02:20:47;11.90;84.70
44111;DHT22;29774;52.664;5.074;2023-03-23T02:23:40;11.90;84.60
44111;DHT22;29774;52.664;5.074;2023-03-23T02:26:30;11.80;85.00
44111;DHT22;29774;52.664;5.074;2023-03-23T02:36:50;11.80;85.30
44111;DHT22;29774;52.664;5.074;2023-03-23T02:39:33;11.80;85.60
44111;DHT22;29774;52.664;5.074;2023-03-23T02:42:12;11.70;86.00
44111;DHT22;29774;52.664;5.074;2023-03-23T02:44:41;11.70;86.00
44111;DHT22;29774;52.664;5.074;2023-03-23T02:47:12;11.70;86.10
44111;DHT22;29774;52.664;5.074;2023-03-23T02:49:41;11.70;86.60
44111;DHT22;29774;52.664;5.074;2023-03-23T02:52:14;11.60;86.90
44111;DHT22;29774;52.664;5.074;2023-03-23T02:54:43;11.60;87.30
44111;DHT22;29774;52.664;5.074;2023-03-23T02:57:10;11.50;87.80
44111;DHT22;29774;52.664;5.074;2023-03-23T02:59:36;11.40;88.40
44111;DHT22;29774;52.664;5.074;2023-03-23T03:02:05;11.50;88.10
44111;DHT22;29774;52.664;5.074;2023-03-23T03:04:33;11.50;87.90
44111;DHT22;29774;52.664;5.074;2023-03-23T03:09:53;11.60;87.30
44111;DHT22;29774;52.664;5.074;2023-03-23T03:13:28;11.60;87.40
44111;DHT22;29774;52.664;5.074;2023-03-23T03:15:37;11.50;87.60
44111;DHT22;29774;52.664;5.074;2023-03-23T03:18:13;11.60;87.10
44111;DHT22;29774;52.664;5.074;2023-03-23T03:20:47;11.50;87.20
44111;DHT22;29774;52.664;5.074;2023-03-23T03:23:15;11.60;86.70
44111;DHT22;29774;52.664;5.074;2023-03-23T03:25:42;11.70;86.30
44111;DHT22;29774;52.664;5.074;2023-03-23T03:28:17;11.70;86.20
44111;DHT22;29774;52.664;5.074;2023-03-23T03:30:56;11.60;86.60
44111;DHT22;29774;52.664;5.074;2023-03-23T03:33:26;11.70;86.10
44111;DHT22;29774;52.664;5.074;2023-03-23T03:35:57;11.80;85.40
44111;DHT22;29774;52.664;5.074;2023-03-23T03:38:24;11.80;85.50
44111;DHT22;29774;52.664;5.074;2023-03-23T03:40:50;11.80;85.20
44111;DHT22;29774;52.664;5.074;2023-03-23T03:43:16;11.80;85.00
44111;DHT22;29774;52.664;5.074;2023-03-23T03:45:42;11.80;84.90
44111;DHT22;29774;52.664;5.074;2023-03-23T03:48:08;11.90;84.80
44111;DHT22;29774;52.664;5.074;2023-03-23T03:50:34;11.90;84.80
44111;DHT22;29774;52.664;5.074;2023-03-23T03:52:59;11.90;84.80
44111;DHT22;29774;52.664;5.074;2023-03-23T03:55:25;11.90;84.90
44111;DHT22;29774;52.664;5.074;2023-03-23T03:57:53;11.90;84.70
44111;DHT22;29774;52.664;5.074;2023-03-23T04:00:20;11.80;85.10
44111;DHT22;29774;52.664;5.074;2023-03-23T04:02:48;11.90;84.70
44111;DHT22;29774;52.664;5.074;2023-03-23T04:05:17;11.90;84.40
44111;DHT22;29774;52.664;5.074;2023-03-23T04:07:43;11.90;84.20
44111;DHT22;29774;52.664;5.074;2023-03-23T04:10:10;11.90;84.10
44111;DHT22;29774;52.664;5.074;2023-03-23T04:12:37;11.70;84.30
44111;DHT22;29774;52.664;5.074;2023-03-23T04:15:04;11.80;84.20
44111;DHT22;29774;52.664;5.074;2023-03-23T04:17:29;11.70;84.10
44111;DHT22;29774;52.664;5.074;2023-03-23T04:19:55;11.70;84.10
44111;DHT22;29774;52.664;5.074;2023-03-23T04:22:32;11.80;84.00
44111;DHT22;29774;52.664;5.074;2023-03-23T04:24:59;11.90;83.40
44111;DHT22;29774;52.664;5.074;2023-03-23T04:27:27;11.90;83.10
44111;DHT22;29774;52.664;5.074;2023-03-23T04:29:55;11.70;83.40
44111;DHT22;29774;52.664;5.074;2023-03-23T04:32:21;11.70;83.70
44111;DHT22;29774;52.664;5.074;2023-03-23T04:34:47;11.70;83.60
44111;DHT22;29774;52.664;5.074;2023-03-23T04:37:14;11.60;83.70
44111;DHT22;29774;52.664;5.074;2023-03-23T04:39:39;11.60;83.80
44111;DHT22;29774;52.664;5.074;2023-03-23T04:42:07;11.70;83.70
44111;DHT22;29774;52.664;5.074;2023-03-23T04:44:32;11.70;83.60
44111;DHT22;29774;52.664;5.074;2023-03-23T04:47:00;11.80;83.50
44111;DHT22;29774;52.664;5.074;2023-03-23T04:49:26;11.70;83.40
44111;DHT22;29774;52.664;5.074;2023-03-23T04:51:52;11.70;83.60
44111;DHT22;29774;52.664;5.074;2023-03-23T04:54:18;11.70;83.70
44111;DHT22;29774;52.664;5.074;2023-03-23T04:56:44;11.70;83.50
44111;DHT22;29774;52.664;5.074;2023-03-23T04:59:09;11.70;83.50
44111;DHT22;29774;52.664;5.074;2023-03-23T05:01:36;11.70;83.50
44111;DHT22;29774;52.664;5.074;2023-03-23T05:04:03;11.70;83.40
44111;DHT22;29774;52.664;5.074;2023-03-23T05:06:29;11.70;83.60
44111;DHT22;29774;52.664;5.074;2023-03-23T05:08:55;11.80;83.40
44111;DHT22;29774;52.664;5.074;2023-03-23T05:11:20;11.80;83.50
44111;DHT22;29774;52.664;5.074;2023-03-23T05:13:46;11.80;83.40
44111;DHT22;29774;52.664;5.074;2023-03-23T05:16:12;11.70;83.50
44111;DHT22;29774;52.664;5.074;2023-03-23T05:18:37;11.70;83.40
44111;DHT22;29774;52.664;5.074;2023-03-23T05:21:03;11.60;83.60
44111;DHT22;29774;52.664;5.074;2023-03-23T05:23:29;11.60;83.80
44111;DHT22;29774;52.664;5.074;2023-03-23T05:25:59;11.60;83.80
44111;DHT22;29774;52.664;5.074;2023-03-23T05:28:28;11.50;83.70
44111;DHT22;29774;52.664;5.074;2023-03-23T05:30:54;11.50;83.80
44111;DHT22;29774;52.664;5.074;2023-03-23T05:33:21;11.40;83.80
44111;DHT22;29774;52.664;5.074;2023-03-23T05:35:47;11.40;83.90
44111;DHT22;29774;52.664;5.074;2023-03-23T05:38:13;11.40;83.80
44111;DHT22;29774;52.664;5.074;2023-03-23T05:40:40;11.20;83.90
44111;DHT22;29774;52.664;5.074;2023-03-23T05:43:07;11.20;84.00
44111;DHT22;29774;52.664;5.074;2023-03-23T05:45:33;11.10;84.20
44111;DHT22;29774;52.664;5.074;2023-03-23T05:47:59;11.20;84.50
44111;DHT22;29774;52.664;5.074;2023-03-23T05:50:25;11.20;84.30
44111;DHT22;29774;52.664;5.074;2023-03-23T05:52:51;11.20;84.30
44111;DHT22;29774;52.664;5.074;2023-03-23T05:55:17;11.10;84.50
44111;DHT22;29774;52.664;5.074;2023-03-23T05:57:43;11.30;84.40
44111;DHT22;29774;52.664;5.074;2023-03-23T06:00:09;11.20;84.20
44111;DHT22;29774;52.664;5.074;2023-03-23T06:02:37;11.30;84.00
44111;DHT22;29774;52.664;5.074;2023-03-23T06:05:02;11.30;83.80
44111;DHT22;29774;52.664;5.074;2023-03-23T06:07:28;11.40;83.90
44111;DHT22;29774;52.664;5.074;2023-03-23T06:09:54;11.30;84.00
44111;DHT22;29774;52.664;5.074;2023-03-23T06:12:19;11.30;83.80
44111;DHT22;29774;52.664;5.074;2023-03-23T06:14:46;11.20;83.90
44111;DHT22;29774;52.664;5.074;2023-03-23T06:17:17;11.30;84.00
44111;DHT22;29774;52.664;5.074;2023-03-23T06:19:43;11.20;83.90
44111;DHT22;29774;52.664;5.074;2023-03-23T06:22:09;11.30;83.90
44111;DHT22;29774;52.664;5.074;2023-03-23T06:24:35;11.30;83.70
44111;DHT22;29774;52.664;5.074;2023-03-23T06:27:01;11.20;83.60
44111;DHT22;29774;52.664;5.074;2023-03-23T06:29:27;11.20;83.80
44111;DHT22;29774;52.664;5.074;2023-03-23T06:31:57;11.20;83.80
44111;DHT22;29774;52.664;5.074;2023-03-23T06:34:24;11.40;84.00
44111;DHT22;29774;52.664;5.074;2023-03-23T06:36:50;11.30;83.70
44111;DHT22;29774;52.664;5.074;2023-03-23T06:39:15;11.30;83.60
44111;DHT22;29774;52.664;5.074;2023-03-23T06:41:41;11.30;83.50
44111;DHT22;29774;52.664;5.074;2023-03-23T06:44:07;11.30;83.60
44111;DHT22;29774;52.664;5.074;2023-03-23T06:46:34;11.30;83.70
44111;DHT22;29774;52.664;5.074;2023-03-23T06:48:59;11.20;84.00
44111;DHT22;29774;52.664;5.074;2023-03-23T06:51:25;11.20;84.10
44111;DHT22;29774;52.664;5.074;2023-03-23T06:53:51;11.10;84.20
44111;DHT22;29774;52.664;5.074;2023-03-23T06:56:16;11.20;84.40
44111;DHT22;29774;52.664;5.074;2023-03-23T06:58:42;11.10;84.60
44111;DHT22;29774;52.664;5.074;2023-03-23T07:01:08;11.10;84.70
44111;DHT22;29774;52.664;5.074;2023-03-23T07:03:35;11.20;84.80
44111;DHT22;29774;52.664;5.074;2023-03-23T07:06:02;11.30;84.50
44111;DHT22;29774;52.664;5.074;2023-03-23T07:08:28;11.30;84.40
44111;DHT22;29774;52.664;5.074;2023-03-23T07:10:55;11.30;84.10
44111;DHT22;29774;52.664;5.074;2023-03-23T07:13:21;11.30;84.10
44111;DHT22;29774;52.664;5.074;2023-03-23T07:15:47;11.30;84.10
44111;DHT22;29774;52.664;5.074;2023-03-23T07:18:14;11.40;84.00
44111;DHT22;29774;52.664;5.074;2023-03-23T07:20:40;11.40;83.90
44111;DHT22;29774;52.664;5.074;2023-03-23T07:23:06;11.40;83.90
44111;DHT22;29774;52.664;5.074;2023-03-23T07:25:33;11.40;83.90
44111;DHT22;29774;52.664;5.074;2023-03-23T07:28:00;11.30;84.00
44111;DHT22;29774;52.664;5.074;2023-03-23T07:30:26;11.40;84.20
44111;DHT22;29774;52.664;5.074;2023-03-23T07:32:52;11.40;84.10
44111;DHT22;29774;52.664;5.074;2023-03-23T07:35:18;11.50;84.00
44111;DHT22;29774;52.664;5.074;2023-03-23T07:37:44;11.50;84.00
44111;DHT22;29774;52.664;5.074;2023-03-23T07:40:11;11.40;84.20
44111;DHT22;29774;52.664;5.074;2023-03-23T07:42:44;11.30;84.40
44111;DHT22;29774;52.664;5.074;2023-03-23T07:45:12;11.40;84.40
44111;DHT22;29774;52.664;5.074;2023-03-23T07:47:39;11.40;84.30
44111;DHT22;29774;52.664;5.074;2023-03-23T07:50:05;11.50;84.10
44111;DHT22;29774;52.664;5.074;2023-03-23T07:52:32;11.50;83.80
44111;DHT22;29774;52.664;5.074;2023-03-23T07:54:58;11.60;84.00
44111;DHT22;29774;52.664;5.074;2023-03-23T07:57:24;11.70;84.10
44111;DHT22;29774;52.664;5.074;2023-03-23T07:59:50;11.80;84.30
44111;DHT22;29774;52.664;5.074;2023-03-23T08:02:16;11.90;84.10
44111;DHT22;29774;52.664;5.074;2023-03-23T08:04:41;12.00;83.70
44111;DHT22;29774;52.664;5.074;2023-03-23T08:07:07;12.10;83.40
44111;DHT22;29774;52.664;5.074;2023-03-23T08:09:33;12.20;82.80
44111;DHT22;29774;52.664;5.074;2023-03-23T08:11:59;12.30;82.60
44111;DHT22;29774;52.664;5.074;2023-03-23T08:14:24;12.30;82.20
44111;DHT22;29774;52.664;5.074;2023-03-23T08:16:53;12.40;81.90
44111;DHT22;29774;52.664;5.074;2023-03-23T08:19:20;12.50;81.60
44111;DHT22;29774;52.664;5.074;2023-03-23T08:21:46;12.60;81.60
44111;DHT22;29774;52.664;5.074;2023-03-23T08:24:12;12.70;81.10
44111;DHT22;29774;52.664;5.074;2023-03-23T08:26:38;12.70;80.70
44111;DHT22;29774;52.664;5.074;2023-03-23T08:29:04;12.70;80.70
44111;DHT22;29774;52.664;5.074;2023-03-23T08:31:31;12.80;80.20
44111;DHT22;29774;52.664;5.074;2023-03-23T08:34:00;12.90;81.20
44111;DHT22;29774;52.664;5.074;2023-03-23T08:36:26;13.00;80.60
44111;DHT22;29774;52.664;5.074;2023-03-23T08:38:52;13.10;80.40
44111;DHT22;29774;52.664;5.074;2023-03-23T08:41:19;13.10;79.90
44111;DHT22;29774;52.664;5.074;2023-03-23T08:43:45;13.10;79.20
44111;DHT22;29774;52.664;5.074;2023-03-23T08:46:12;13.30;80.10
44111;DHT22;29774;52.664;5.074;2023-03-23T08:48:37;13.20;78.90
44111;DHT22;29774;52.664;5.074;2023-03-23T08:51:05;13.30;79.50
44111;DHT22;29774;52.664;5.074;2023-03-23T08:53:31;13.40;79.70
44111;DHT22;29774;52.664;5.074;2023-03-23T08:56:03;13.30;78.90
44111;DHT22;29774;52.664;5.074;2023-03-23T08:58:28;13.30;78.60
44111;DHT22;29774;52.664;5.074;2023-03-23T09:00:54;13.30;78.70
44111;DHT22;29774;52.664;5.074;2023-03-23T09:03:20;13.40;78.60
44111;DHT22;29774;52.664;5.074;2023-03-23T09:05:45;13.50;78.80
44111;DHT22;29774;52.664;5.074;2023-03-23T09:08:12;13.50;78.30
44111;DHT22;29774;52.664;5.074;2023-03-23T09:10:38;13.50;77.90
44111;DHT22;29774;52.664;5.074;2023-03-23T09:13:05;13.50;77.70
44111;DHT22;29774;52.664;5.074;2023-03-23T09:15:31;13.70;77.90
44111;DHT22;29774;52.664;5.074;2023-03-23T09:17:57;13.70;77.40
44111;DHT22;29774;52.664;5.074;2023-03-23T09:20:25;13.60;77.70
44111;DHT22;29774;52.664;5.074;2023-03-23T09:22:52;13.70;77.80
44111;DHT22;29774;52.664;5.074;2023-03-23T09:25:20;13.70;77.30
44111;DHT22;29774;52.664;5.074;2023-03-23T09:27:49;13.80;77.10
44111;DHT22;29774;52.664;5.074;2023-03-23T09:30:18;13.90;77.20
44111;DHT22;29774;52.664;5.074;2023-03-23T09:32:45;14.00;76.60
44111;DHT22;29774;52.664;5.074;2023-03-23T09:35:11;13.90;76.10
44111;DHT22;29774;52.664;5.074;2023-03-23T09:37:42;13.90;76.10
44111;DHT22;29774;52.664;5.074;2023-03-23T09:43:01;13.90;76.50
44111;DHT22;29774;52.664;5.074;2023-03-23T09:48:30;13.90;76.00
44111;DHT22;29774;52.664;5.074;2023-03-23T09:56:42;13.90;75.60
44111;DHT22;29774;52.664;5.074;2023-03-23T10:02:21;14.20;76.10
44111;DHT22;29774;52.664;5.074;2023-03-23T10:04:55;14.10;75.40
44111;DHT22;29774;52.664;5.074;2023-03-23T10:07:42;14.10;75.40
44111;DHT22;29774;52.664;5.074;2023-03-23T10:10:12;14.00;75.50
44111;DHT22;29774;52.664;5.074;2023-03-23T10:12:56;14.00;75.30
44111;DHT22;29774;52.664;5.074;2023-03-23T10:15:36;14.10;75.30
44111;DHT22;29774;52.664;5.074;2023-03-23T10:18:25;14.10;75.50
44111;DHT22;29774;52.664;5.074;2023-03-23T10:20:56;14.20;75.20
44111;DHT22;29774;52.664;5.074;2023-03-23T10:23:40;14.20;75.50
44111;DHT22;29774;52.664;5.074;2023-03-23T10:29:11;14.40;75.00
44111;DHT22;29774;52.664;5.074;2023-03-23T10:31:44;14.40;74.30
44111;DHT22;29774;52.664;5.074;2023-03-23T10:34:41;14.30;74.50
44111;DHT22;29774;52.664;5.074;2023-03-23T10:37:20;14.20;74.60
44111;DHT22;29774;52.664;5.074;2023-03-23T10:39:55;14.30;74.70
44111;DHT22;29774;52.664;5.074;2023-03-23T10:42:31;14.40;74.70
44111;DHT22;29774;52.664;5.074;2023-03-23T10:45:00;14.60;74.80
44111;DHT22;29774;52.664;5.074;2023-03-23T10:47:26;14.60;73.60
44111;DHT22;29774;52.664;5.074;2023-03-23T10:49:58;14.40;73.70
44111;DHT22;29774;52.664;5.074;2023-03-23T10:55:00;14.50;73.70
44111;DHT22;29774;52.664;5.074;2023-03-23T10:57:30;14.40;73.70
44111;DHT22;29774;52.664;5.074;2023-03-23T11:00:23;14.40;74.10
44111;DHT22;29774;52.664;5.074;2023-03-23T11:05:50;14.60;73.90
44111;DHT22;29774;52.664;5.074;2023-03-23T11:08:23;14.60;74.10
44111;DHT22;29774;52.664;5.074;2023-03-23T11:13:16;14.70;73.00
44111;DHT22;29774;52.664;5.074;2023-03-23T11:15:44;14.60;73.30
44111;DHT22;29774;52.664;5.074;2023-03-23T11:18:21;14.60;73.00
44111;DHT22;29774;52.664;5.074;2023-03-23T11:20:54;14.60;73.20
44111;DHT22;29774;52.664;5.074;2023-03-23T11:23:27;14.70;72.90
44111;DHT22;29774;52.664;5.074;2023-03-23T11:25:56;14.60;72.90
44111;DHT22;29774;52.664;5.074;2023-03-23T11:28:27;14.70;73.60
44111;DHT22;29774;52.664;5.074;2023-03-23T11:30:54;14.70;73.20
44111;DHT22;29774;52.664;5.074;2023-03-23T11:33:21;14.80;73.30
44111;DHT22;29774;52.664;5.074;2023-03-23T11:35:52;14.70;72.70
44111;DHT22;29774;52.664;5.074;2023-03-23T11:38:21;14.60;73.80
44111;DHT22;29774;52.664;5.074;2023-03-23T11:40:50;14.50;74.00
44111;DHT22;29774;52.664;5.074;2023-03-23T11:43:24;14.50;73.90
44111;DHT22;29774;52.664;5.074;2023-03-23T11:46:10;14.40;74.20
44111;DHT22;29774;52.664;5.074;2023-03-23T11:49:02;14.40;74.20
44111;DHT22;29774;52.664;5.074;2023-03-23T11:51:45;14.40;73.20
44111;DHT22;29774;52.664;5.074;2023-03-23T11:56:41;14.80;72.40
44111;DHT22;29774;52.664;5.074;2023-03-23T11:59:28;14.80;71.80
44111;DHT22;29774;52.664;5.074;2023-03-23T12:04:47;14.50;73.90
44111;DHT22;29774;52.664;5.074;2023-03-23T12:10:27;14.50;73.80
44111;DHT22;29774;52.664;5.074;2023-03-23T12:16:04;14.40;74.50
44111;DHT22;29774;52.664;5.074;2023-03-23T12:26:52;14.40;74.30
44111;DHT22;29774;52.664;5.074;2023-03-23T12:29:38;14.40;74.20
44111;DHT22;29774;52.664;5.074;2023-03-23T12:32:23;14.40;74.50
44111;DHT22;29774;52.664;5.074;2023-03-23T12:37:43;14.60;73.20
44111;DHT22;29774;52.664;5.074;2023-03-23T12:46:20;14.60;72.90
44111;DHT22;29774;52.664;5.074;2023-03-23T12:49:08;14.70;73.40
44111;DHT22;29774;52.664;5.074;2023-03-23T12:51:55;14.70;72.80
44111;DHT22;29774;52.664;5.074;2023-03-23T12:55:02;14.60;73.40
44111;DHT22;29774;52.664;5.074;2023-03-23T12:57:34;14.50;73.00
44111;DHT22;29774;52.664;5.074;2023-03-23T13:02:52;14.40;73.40
44111;DHT22;29774;52.664;5.074;2023-03-23T13:08:14;14.30;73.40
44111;DHT22;29774;52.664;5.074;2023-03-23T13:10:57;14.30;73.40
44111;DHT22;29774;52.664;5.074;2023-03-23T13:19:32;14.20;73.20
44111;DHT22;29774;52.664;5.074;2023-03-23T13:22:10;14.20;73.60
44111;DHT22;29774;52.664;5.074;2023-03-23T13:24:39;14.20;73.60
44111;DHT22;29774;52.664;5.074;2023-03-23T13:27:08;14.20;73.70
44111;DHT22;29774;52.664;5.074;2023-03-23T13:29:44;14.10;74.20
44111;DHT22;29774;52.664;5.074;2023-03-23T13:32:15;14.00;74.70
44111;DHT22;29774;52.664;5.074;2023-03-23T13:34:41;13.90;74.30
44111;DHT22;29774;52.664;5.074;2023-03-23T13:39:52;14.00;74.20
44111;DHT22;29774;52.664;5.074;2023-03-23T13:42:24;13.90;74.70
44111;DHT22;29774;52.664;5.074;2023-03-23T13:47:25;13.80;74.50
44111;DHT22;29774;52.664;5.074;2023-03-23T13:50:12;13.80;74.70
44111;DHT22;29774;52.664;5.074;2023-03-23T13:52:50;13.80;74.40
44111;DHT22;29774;52.664;5.074;2023-03-23T13:57:56;13.70;74.70
44111;DHT22;29774;52.664;5.074;2023-03-23T14:00:43;13.70;75.00
44111;DHT22;29774;52.664;5.074;2023-03-23T14:11:00;13.70;75.80
44111;DHT22;29774;52.664;5.074;2023-03-23T14:16:13;13.70;76.40
44111;DHT22;29774;52.664;5.074;2023-03-23T14:18:41;13.70;76.10
44111;DHT22;29774;52.664;5.074;2023-03-23T14:21:15;13.70;76.10
44111;DHT22;29774;52.664;5.074;2023-03-23T14:23:42;13.70;76.40
44111;DHT22;29774;52.664;5.074;2023-03-23T14:26:15;13.60;76.30
44111;DHT22;29774;52.664;5.074;2023-03-23T14:28:44;13.60;75.10
44111;DHT22;29774;52.664;5.074;2023-03-23T14:33:45;13.70;75.70
44111;DHT22;29774;52.664;5.074;2023-03-23T14:36:11;13.60;75.00
44111;DHT22;29774;52.664;5.074;2023-03-23T14:38:36;13.70;75.70
44111;DHT22;29774;52.664;5.074;2023-03-23T14:41:05;13.60;75.50
44111;DHT22;29774;52.664;5.074;2023-03-23T14:43:33;13.60;75.90
44111;DHT22;29774;52.664;5.074;2023-03-23T14:46:01;13.60;76.40
44111;DHT22;29774;52.664;5.074;2023-03-23T14:48:27;13.60;75.90
44111;DHT22;29774;52.664;5.074;2023-03-23T14:50:58;13.60;75.80
44111;DHT22;29774;52.664;5.074;2023-03-23T14:53:30;13.60;75.60
44111;DHT22;29774;52.664;5.074;2023-03-23T14:56:04;13.60;75.30
44111;DHT22;29774;52.664;5.074;2023-03-23T14:58:32;13.60;75.20
44111;DHT22;29774;52.664;5.074;2023-03-23T15:01:08;13.60;75.10
44111;DHT22;29774;52.664;5.074;2023-03-23T15:03:38;13.50;76.50
44111;DHT22;29774;52.664;5.074;2023-03-23T15:06:12;13.50;75.00
44111;DHT22;29774;52.664;5.074;2023-03-23T15:08:39;13.60;76.30
44111;DHT22;29774;52.664;5.074;2023-03-23T15:11:34;13.50;76.20
44111;DHT22;29774;52.664;5.074;2023-03-23T15:14:17;13.50;75.90
44111;DHT22;29774;52.664;5.074;2023-03-23T15:16:47;13.50;75.10
44111;DHT22;29774;52.664;5.074;2023-03-23T15:19:22;13.50;76.10
44111;DHT22;29774;52.664;5.074;2023-03-23T15:21:54;13.50;75.90
44111;DHT22;29774;52.664;5.074;2023-03-23T15:29:46;13.50;77.20
44111;DHT22;29774;52.664;5.074;2023-03-23T15:32:12;13.50;76.50
44111;DHT22;29774;52.664;5.074;2023-03-23T15:34:38;13.50;77.20
44111;DHT22;29774;52.664;5.074;2023-03-23T15:37:16;13.50;77.10
44111;DHT22;29774;52.664;5.074;2023-03-23T15:39:45;13.50;76.40
44111;DHT22;29774;52.664;5.074;2023-03-23T15:42:31;13.50;76.90
44111;DHT22;29774;52.664;5.074;2023-03-23T15:45:22;13.40;75.60
44111;DHT22;29774;52.664;5.074;2023-03-23T15:47:49;13.50;76.30
44111;DHT22;29774;52.664;5.074;2023-03-23T15:52:43;13.50;76.20
44111;DHT22;29774;52.664;5.074;2023-03-23T15:55:23;13.40;74.20
44111;DHT22;29774;52.664;5.074;2023-03-23T15:57:50;13.40;74.00
44111;DHT22;29774;52.664;5.074;2023-03-23T16:00:18;13.50;74.90
44111;DHT22;29774;52.664;5.074;2023-03-23T16:02:46;13.50;76.00
44111;DHT22;29774;52.664;5.074;2023-03-23T16:05:12;13.60;76.50
44111;DHT22;29774;52.664;5.074;2023-03-23T16:07:38;13.60;75.40
44111;DHT22;29774;52.664;5.074;2023-03-23T16:10:05;13.60;75.80
44111;DHT22;29774;52.664;5.074;2023-03-23T16:12:32;13.60;76.00
44111;DHT22;29774;52.664;5.074;2023-03-23T16:14:58;13.60;76.30
44111;DHT22;29774;52.664;5.074;2023-03-23T16:17:24;13.60;76.90
44111;DHT22;29774;52.664;5.074;2023-03-23T16:19:50;13.60;75.70
44111;DHT22;29774;52.664;5.074;2023-03-23T16:22:16;13.50;75.80
44111;DHT22;29774;52.664;5.074;2023-03-23T16:24:41;13.50;75.30
44111;DHT22;29774;52.664;5.074;2023-03-23T16:27:09;13.50;75.70
44111;DHT22;29774;52.664;5.074;2023-03-23T16:29:35;13.50;77.10
44111;DHT22;29774;52.664;5.074;2023-03-23T16:32:01;13.50;77.10
44111;DHT22;29774;52.664;5.074;2023-03-23T16:34:26;13.40;76.00
44111;DHT22;29774;52.664;5.074;2023-03-23T16:36:54;13.40;76.70
44111;DHT22;29774;52.664;5.074;2023-03-23T16:39:20;13.50;77.30
44111;DHT22;29774;52.664;5.074;2023-03-23T16:41:47;13.50;77.40
44111;DHT22;29774;52.664;5.074;2023-03-23T16:44:13;13.40;76.30
44111;DHT22;29774;52.664;5.074;2023-03-23T16:46:38;13.40;76.40
44111;DHT22;29774;52.664;5.074;2023-03-23T16:49:04;13.40;77.00
44111;DHT22;29774;52.664;5.074;2023-03-23T16:51:30;13.40;76.20
44111;DHT22;29774;52.664;5.074;2023-03-23T16:53:55;13.30;76.40
44111;DHT22;29774;52.664;5.074;2023-03-23T16:56:21;13.30;75.90
44111;DHT22;29774;52.664;5.074;2023-03-23T16:58:46;13.40;77.20
44111;DHT22;29774;52.664;5.074;2023-03-23T17:01:12;13.30;76.70
44111;DHT22;29774;52.664;5.074;2023-03-23T17:03:38;13.30;76.50
44111;DHT22;29774;52.664;5.074;2023-03-23T17:06:04;13.30;76.40
44111;DHT22;29774;52.664;5.074;2023-03-23T17:08:30;13.30;76.50
44111;DHT22;29774;52.664;5.074;2023-03-23T17:10:56;13.30;76.60
44111;DHT22;29774;52.664;5.074;2023-03-23T17:13:22;13.30;76.30
44111;DHT22;29774;52.664;5.074;2023-03-23T17:15:51;13.30;77.40
44111;DHT22;29774;52.664;5.074;2023-03-23T17:18:17;13.30;77.10
44111;DHT22;29774;52.664;5.074;2023-03-23T17:20:42;13.30;76.30
44111;DHT22;29774;52.664;5.074;2023-03-23T17:23:08;13.30;76.20
44111;DHT22;29774;52.664;5.074;2023-03-23T17:25:34;13.30;75.90
44111;DHT22;29774;52.664;5.074;2023-03-23T17:28:00;13.30;76.80
44111;DHT22;29774;52.664;5.074;2023-03-23T17:30:25;13.30;77.20
44111;DHT22;29774;52.664;5.074;2023-03-23T17:32:51;13.30;77.80